sensor_id;sensor_type;location;lat;lon;timestamp;P1;durP1;ratioP1;P2;durP2;ratioP2
63114;SDS011;49208;50.874;6.466;2022-07-29T00:01:58;6.28;;;1.75;;
63114;SDS011;49208;50.874;6.466;2022-07-29T00:04:23;6.72;;;1.90;;
63114;SDS011;49208;50.874;6.466;2022-07-29T00:06:49;6.55;;;1.70;;
63114;SDS011;49208;50.874;6.466;2022-07-29T00:09:14;8.85;;;1.85;;
63114;SDS011;49208;50.874;6.466;2022-07-29T00:11:39;10.45;;;2.30;;
63114;SDS011;49208;50.874;6.466;2022-07-29T00:14:05;7.10;;;1.80;;
63114;SDS011;49208;50.874;6.466;2022-07-29T00:16:30;8.43;;;2.47;;
63114;SDS011;49208;50.874;6.466;2022-07-29T00:18:55;6.20;;;1.83;;
63114;SDS011;49208;50.874;6.466;2022-07-29T00:21:22;8.00;;;2.30;;
63114;SDS011;49208;50.874;6.466;2022-07-29T00:23:47;7.43;;;2.25;;
63114;SDS011;49208;50.874;6.466;2022-07-29T00:26:13;9.57;;;2.35;;
63114;SDS011;49208;50.874;6.466;2022-07-29T00:28:38;7.65;;;2.38;;
63114;SDS011;49208;50.874;6.466;2022-07-29T00:31:03;10.55;;;2.30;;
63114;SDS011;49208;50.874;6.466;2022-07-29T00:33:29;7.47;;;2.10;;
63114;SDS011;49208;50.874;6.466;2022-07-29T00:35:54;8.63;;;2.20;;
63114;SDS011;49208;50.874;6.466;2022-07-29T00:38:20;8.48;;;1.90;;
63114;SDS011;49208;50.874;6.466;2022-07-29T00:40:46;5.13;;;2.28;;
63114;SDS011;49208;50.874;6.466;2022-07-29T00:43:12;4.05;;;1.80;;
63114;SDS011;49208;50.874;6.466;2022-07-29T00:48:05;6.97;;;1.85;;
63114;SDS011;49208;50.874;6.466;2022-07-29T00:50:31;5.10;;;1.90;;
63114;SDS011;49208;50.874;6.466;2022-07-29T00:52:57;5.10;;;1.80;;
63114;SDS011;49208;50.874;6.466;2022-07-29T00:55:23;6.25;;;1.77;;
63114;SDS011;49208;50.874;6.466;2022-07-29T00:57:49;6.28;;;1.42;;
63114;SDS011;49208;50.874;6.466;2022-07-29T01:00:16;3.53;;;1.23;;
63114;SDS011;49208;50.874;6.466;2022-07-29T01:02:44;3.92;;;1.52;;
63114;SDS011;49208;50.874;6.466;2022-07-29T01:05:13;7.38;;;1.77;;
63114;SDS011;49208;50.874;6.466;2022-07-29T01:07:39;4.90;;;1.90;;
63114;SDS011;49208;50.874;6.466;2022-07-29T01:10:06;4.90;;;1.50;;
63114;SDS011;49208;50.874;6.466;2022-07-29T01:12:34;5.97;;;2.00;;
63114;SDS011;49208;50.874;6.466;2022-07-29T01:15:02;6.38;;;1.70;;
63114;SDS011;49208;50.874;6.466;2022-07-29T01:31:33;8.25;;;2.05;;
63114;SDS011;49208;50.874;6.466;2022-07-29T01:34:00;8.30;;;2.35;;
63114;SDS011;49208;50.874;6.466;2022-07-29T01:36:43;4.72;;;1.67;;
63114;SDS011;49208;50.874;6.466;2022-07-29T01:39:27;3.72;;;1.70;;
63114;SDS011;49208;50.874;6.466;2022-07-29T01:44:45;4.90;;;1.80;;
63114;SDS011;49208;50.874;6.466;2022-07-29T01:47:19;8.02;;;2.00;;
63114;SDS011;49208;50.874;6.466;2022-07-29T01:49:49;6.20;;;2.10;;
63114;SDS011;49208;50.874;6.466;2022-07-29T01:52:20;4.50;;;1.58;;
63114;SDS011;49208;50.874;6.466;2022-07-29T01:54:52;6.03;;;2.05;;
63114;SDS011;49208;50.874;6.466;2022-07-29T01:57:21;6.35;;;1.90;;
63114;SDS011;49208;50.874;6.466;2022-07-29T01:59:52;5.75;;;1.92;;
63114;SDS011;49208;50.874;6.466;2022-07-29T02:02:22;6.15;;;1.70;;
63114;SDS011;49208;50.874;6.466;2022-07-29T02:04:49;6.97;;;2.22;;
63114;SDS011;49208;50.874;6.466;2022-07-29T02:07:19;4.13;;;1.63;;
63114;SDS011;49208;50.874;6.466;2022-07-29T02:09:47;7.05;;;1.85;;
63114;SDS011;49208;50.874;6.466;2022-07-29T02:12:16;6.20;;;1.83;;
63114;SDS011;49208;50.874;6.466;2022-07-29T02:14:48;7.10;;;1.92;;
63114;SDS011;49208;50.874;6.466;2022-07-29T02:17:18;4.90;;;1.80;;
63114;SDS011;49208;50.874;6.466;2022-07-29T02:19:48;9.95;;;2.22;;
63114;SDS011;49208;50.874;6.466;2022-07-29T02:22:15;5.55;;;1.50;;
63114;SDS011;49208;50.874;6.466;2022-07-29T02:24:43;4.28;;;1.67;;
63114;SDS011;49208;50.874;6.466;2022-07-29T02:27:09;3.25;;;1.45;;
63114;SDS011;49208;50.874;6.466;2022-07-29T02:29:36;3.08;;;1.70;;
63114;SDS011;49208;50.874;6.466;2022-07-29T02:32:03;4.03;;;1.60;;
63114;SDS011;49208;50.874;6.466;2022-07-29T02:34:30;5.95;;;1.70;;
63114;SDS011;49208;50.874;6.466;2022-07-29T02:36:57;4.70;;;1.63;;
63114;SDS011;49208;50.874;6.466;2022-07-29T02:39:24;5.93;;;2.00;;
63114;SDS011;49208;50.874;6.466;2022-07-29T02:41:55;4.63;;;1.65;;
63114;SDS011;49208;50.874;6.466;2022-07-29T02:44:27;5.63;;;1.75;;
63114;SDS011;49208;50.874;6.466;2022-07-29T02:46:54;3.60;;;1.65;;
63114;SDS011;49208;50.874;6.466;2022-07-29T02:49:36;5.63;;;1.70;;
63114;SDS011;49208;50.874;6.466;2022-07-29T02:54:58;3.22;;;1.42;;
63114;SDS011;49208;50.874;6.466;2022-07-29T02:57:33;5.07;;;1.70;;
63114;SDS011;49208;50.874;6.466;2022-07-29T03:00:06;4.35;;;2.20;;
63114;SDS011;49208;50.874;6.466;2022-07-29T03:02:34;7.28;;;2.13;;
63114;SDS011;49208;50.874;6.466;2022-07-29T03:05:03;4.03;;;1.90;;
63114;SDS011;49208;50.874;6.466;2022-07-29T03:07:31;4.38;;;1.85;;
63114;SDS011;49208;50.874;6.466;2022-07-29T03:09:59;5.00;;;1.85;;
63114;SDS011;49208;50.874;6.466;2022-07-29T03:12:25;5.32;;;2.20;;
63114;SDS011;49208;50.874;6.466;2022-07-29T03:14:52;5.50;;;1.88;;
63114;SDS011;49208;50.874;6.466;2022-07-29T03:17:18;6.00;;;2.42;;
63114;SDS011;49208;50.874;6.466;2022-07-29T03:19:45;3.97;;;1.80;;
63114;SDS011;49208;50.874;6.466;2022-07-29T03:22:11;3.78;;;1.75;;
63114;SDS011;49208;50.874;6.466;2022-07-29T03:24:37;5.45;;;2.03;;
63114;SDS011;49208;50.874;6.466;2022-07-29T03:27:03;5.50;;;1.92;;
63114;SDS011;49208;50.874;6.466;2022-07-29T03:29:29;7.90;;;2.30;;
63114;SDS011;49208;50.874;6.466;2022-07-29T03:31:55;7.97;;;2.08;;
63114;SDS011;49208;50.874;6.466;2022-07-29T03:34:21;4.72;;;1.98;;
63114;SDS011;49208;50.874;6.466;2022-07-29T03:36:46;4.53;;;1.83;;
63114;SDS011;49208;50.874;6.466;2022-07-29T03:39:14;5.45;;;1.95;;
63114;SDS011;49208;50.874;6.466;2022-07-29T03:41:42;3.92;;;1.88;;
63114;SDS011;49208;50.874;6.466;2022-07-29T03:44:10;4.63;;;2.20;;
63114;SDS011;49208;50.874;6.466;2022-07-29T03:46:37;5.85;;;2.00;;
63114;SDS011;49208;50.874;6.466;2022-07-29T03:49:04;3.88;;;1.88;;
63114;SDS011;49208;50.874;6.466;2022-07-29T03:51:33;4.82;;;2.30;;
63114;SDS011;49208;50.874;6.466;2022-07-29T03:54:00;7.97;;;2.03;;
63114;SDS011;49208;50.874;6.466;2022-07-29T03:56:27;10.82;;;2.08;;
63114;SDS011;49208;50.874;6.466;2022-07-29T03:58:54;6.88;;;1.85;;
63114;SDS011;49208;50.874;6.466;2022-07-29T04:01:20;4.40;;;1.95;;
63114;SDS011;49208;50.874;6.466;2022-07-29T04:03:47;6.85;;;1.92;;
63114;SDS011;49208;50.874;6.466;2022-07-29T04:06:13;3.90;;;2.00;;
63114;SDS011;49208;50.874;6.466;2022-07-29T04:08:39;5.18;;;1.80;;
63114;SDS011;49208;50.874;6.466;2022-07-29T04:11:04;7.55;;;2.20;;
63114;SDS011;49208;50.874;6.466;2022-07-29T04:13:31;3.67;;;1.90;;
63114;SDS011;49208;50.874;6.466;2022-07-29T04:15:57;3.72;;;1.52;;
63114;SDS011;49208;50.874;6.466;2022-07-29T04:18:23;5.68;;;2.00;;
63114;SDS011;49208;50.874;6.466;2022-07-29T04:20:49;7.18;;;2.30;;
63114;SDS011;49208;50.874;6.466;2022-07-29T04:23:15;6.55;;;1.80;;
63114;SDS011;49208;50.874;6.466;2022-07-29T04:25:40;4.65;;;1.67;;
63114;SDS011;49208;50.874;6.466;2022-07-29T04:28:06;5.68;;;1.77;;
63114;SDS011;49208;50.874;6.466;2022-07-29T04:30:33;5.15;;;1.98;;
63114;SDS011;49208;50.874;6.466;2022-07-29T04:33:00;5.25;;;1.80;;
63114;SDS011;49208;50.874;6.466;2022-07-29T04:35:26;4.25;;;1.70;;
63114;SDS011;49208;50.874;6.466;2022-07-29T04:37:52;4.15;;;1.48;;
63114;SDS011;49208;50.874;6.466;2022-07-29T04:40:18;3.75;;;1.75;;
63114;SDS011;49208;50.874;6.466;2022-07-29T04:42:43;3.88;;;1.60;;
63114;SDS011;49208;50.874;6.466;2022-07-29T04:45:09;3.47;;;1.38;;
63114;SDS011;49208;50.874;6.466;2022-07-29T04:47:34;5.20;;;2.38;;
63114;SDS011;49208;50.874;6.466;2022-07-29T04:50:00;3.60;;;1.70;;
63114;SDS011;49208;50.874;6.466;2022-07-29T04:52:25;4.13;;;1.55;;
63114;SDS011;49208;50.874;6.466;2022-07-29T04:54:51;3.25;;;1.70;;
63114;SDS011;49208;50.874;6.466;2022-07-29T04:57:16;3.72;;;1.80;;
63114;SDS011;49208;50.874;6.466;2022-07-29T04:59:42;3.47;;;1.38;;
63114;SDS011;49208;50.874;6.466;2022-07-29T05:02:07;4.03;;;1.65;;
63114;SDS011;49208;50.874;6.466;2022-07-29T05:04:32;3.78;;;1.98;;
63114;SDS011;49208;50.874;6.466;2022-07-29T05:06:58;5.95;;;2.00;;
63114;SDS011;49208;50.874;6.466;2022-07-29T05:09:23;3.53;;;1.60;;
63114;SDS011;49208;50.874;6.466;2022-07-29T05:11:49;6.75;;;1.88;;
63114;SDS011;49208;50.874;6.466;2022-07-29T05:14:14;6.75;;;1.63;;
63114;SDS011;49208;50.874;6.466;2022-07-29T05:16:39;4.93;;;1.90;;
63114;SDS011;49208;50.874;6.466;2022-07-29T05:19:05;5.20;;;2.05;;
63114;SDS011;49208;50.874;6.466;2022-07-29T05:21:31;4.95;;;1.73;;
63114;SDS011;49208;50.874;6.466;2022-07-29T05:23:56;5.80;;;1.73;;
63114;SDS011;49208;50.874;6.466;2022-07-29T05:26:22;4.60;;;1.70;;
63114;SDS011;49208;50.874;6.466;2022-07-29T05:28:47;4.57;;;1.63;;
63114;SDS011;49208;50.874;6.466;2022-07-29T05:31:12;4.88;;;2.05;;
63114;SDS011;49208;50.874;6.466;2022-07-29T05:33:39;6.67;;;2.00;;
63114;SDS011;49208;50.874;6.466;2022-07-29T05:36:05;6.32;;;1.92;;
63114;SDS011;49208;50.874;6.466;2022-07-29T05:38:32;5.35;;;2.03;;
63114;SDS011;49208;50.874;6.466;2022-07-29T05:40:58;6.15;;;2.17;;
63114;SDS011;49208;50.874;6.466;2022-07-29T05:43:24;7.15;;;2.45;;
63114;SDS011;49208;50.874;6.466;2022-07-29T05:45:50;4.95;;;2.03;;
63114;SDS011;49208;50.874;6.466;2022-07-29T05:48:15;5.75;;;2.10;;
63114;SDS011;49208;50.874;6.466;2022-07-29T05:50:41;7.28;;;2.35;;
63114;SDS011;49208;50.874;6.466;2022-07-29T05:53:06;6.18;;;2.20;;
63114;SDS011;49208;50.874;6.466;2022-07-29T05:55:31;7.43;;;2.35;;
63114;SDS011;49208;50.874;6.466;2022-07-29T05:57:57;5.68;;;2.17;;
63114;SDS011;49208;50.874;6.466;2022-07-29T06:00:22;7.57;;;3.13;;
63114;SDS011;49208;50.874;6.466;2022-07-29T06:02:48;6.43;;;2.33;;
63114;SDS011;49208;50.874;6.466;2022-07-29T06:05:13;5.78;;;2.70;;
63114;SDS011;49208;50.874;6.466;2022-07-29T06:07:40;3.80;;;1.77;;
63114;SDS011;49208;50.874;6.466;2022-07-29T06:10:05;7.70;;;2.35;;
63114;SDS011;49208;50.874;6.466;2022-07-29T06:12:31;9.05;;;2.60;;
63114;SDS011;49208;50.874;6.466;2022-07-29T06:14:57;5.53;;;1.80;;
63114;SDS011;49208;50.874;6.466;2022-07-29T06:17:22;8.75;;;3.10;;
63114;SDS011;49208;50.874;6.466;2022-07-29T06:19:48;7.70;;;3.22;;
63114;SDS011;49208;50.874;6.466;2022-07-29T06:22:15;8.65;;;2.65;;
63114;SDS011;49208;50.874;6.466;2022-07-29T06:24:41;7.88;;;2.53;;
63114;SDS011;49208;50.874;6.466;2022-07-29T06:27:08;5.50;;;2.40;;
63114;SDS011;49208;50.874;6.466;2022-07-29T06:29:34;7.53;;;2.75;;
63114;SDS011;49208;50.874;6.466;2022-07-29T06:32:00;7.88;;;2.80;;
63114;SDS011;49208;50.874;6.466;2022-07-29T06:34:25;5.50;;;3.15;;
63114;SDS011;49208;50.874;6.466;2022-07-29T06:36:51;7.63;;;3.00;;
63114;SDS011;49208;50.874;6.466;2022-07-29T06:39:17;7.90;;;2.53;;
63114;SDS011;49208;50.874;6.466;2022-07-29T06:41:45;5.10;;;2.45;;
63114;SDS011;49208;50.874;6.466;2022-07-29T06:44:12;8.68;;;2.38;;
63114;SDS011;49208;50.874;6.466;2022-07-29T06:46:37;6.18;;;2.63;;
63114;SDS011;49208;50.874;6.466;2022-07-29T06:49:03;6.15;;;2.30;;
63114;SDS011;49208;50.874;6.466;2022-07-29T06:51:29;9.23;;;2.95;;
63114;SDS011;49208;50.874;6.466;2022-07-29T06:53:54;9.95;;;2.83;;
63114;SDS011;49208;50.874;6.466;2022-07-29T06:58:47;4.38;;;2.10;;
63114;SDS011;49208;50.874;6.466;2022-07-29T07:01:12;8.70;;;2.63;;
63114;SDS011;49208;50.874;6.466;2022-07-29T07:03:38;5.75;;;2.30;;
63114;SDS011;49208;50.874;6.466;2022-07-29T07:06:03;8.90;;;3.10;;
63114;SDS011;49208;50.874;6.466;2022-07-29T07:08:29;6.00;;;2.75;;
63114;SDS011;49208;50.874;6.466;2022-07-29T07:10:54;7.22;;;2.53;;
63114;SDS011;49208;50.874;6.466;2022-07-29T07:13:20;7.75;;;2.97;;
63114;SDS011;49208;50.874;6.466;2022-07-29T07:15:45;7.90;;;2.75;;
63114;SDS011;49208;50.874;6.466;2022-07-29T07:18:13;8.55;;;3.30;;
63114;SDS011;49208;50.874;6.466;2022-07-29T07:20:39;9.52;;;3.50;;
63114;SDS011;49208;50.874;6.466;2022-07-29T07:23:05;11.95;;;3.88;;
63114;SDS011;49208;50.874;6.466;2022-07-29T07:25:31;7.03;;;3.03;;
63114;SDS011;49208;50.874;6.466;2022-07-29T07:27:57;9.45;;;3.65;;
63114;SDS011;49208;50.874;6.466;2022-07-29T07:30:22;9.68;;;3.95;;
63114;SDS011;49208;50.874;6.466;2022-07-29T07:32:48;6.82;;;3.47;;
63114;SDS011;49208;50.874;6.466;2022-07-29T07:35:14;8.90;;;3.85;;
63114;SDS011;49208;50.874;6.466;2022-07-29T07:37:39;9.57;;;4.15;;
63114;SDS011;49208;50.874;6.466;2022-07-29T07:40:08;11.93;;;3.85;;
63114;SDS011;49208;50.874;6.466;2022-07-29T07:42:36;12.15;;;4.25;;
63114;SDS011;49208;50.874;6.466;2022-07-29T07:45:03;7.83;;;3.80;;
63114;SDS011;49208;50.874;6.466;2022-07-29T07:47:28;8.77;;;3.95;;
63114;SDS011;49208;50.874;6.466;2022-07-29T07:49:54;5.00;;;3.22;;
63114;SDS011;49208;50.874;6.466;2022-07-29T07:52:20;8.30;;;4.10;;
63114;SDS011;49208;50.874;6.466;2022-07-29T07:54:47;9.57;;;3.85;;
63114;SDS011;49208;50.874;6.466;2022-07-29T07:57:13;9.13;;;4.13;;
63114;SDS011;49208;50.874;6.466;2022-07-29T07:59:40;7.53;;;4.10;;
63114;SDS011;49208;50.874;6.466;2022-07-29T08:02:05;9.80;;;4.70;;
63114;SDS011;49208;50.874;6.466;2022-07-29T08:04:31;9.60;;;4.50;;
63114;SDS011;49208;50.874;6.466;2022-07-29T08:06:57;7.72;;;3.78;;
63114;SDS011;49208;50.874;6.466;2022-07-29T08:09:23;7.10;;;3.22;;
63114;SDS011;49208;50.874;6.466;2022-07-29T08:14:16;6.03;;;3.28;;
63114;SDS011;49208;50.874;6.466;2022-07-29T08:16:41;7.35;;;3.38;;
63114;SDS011;49208;50.874;6.466;2022-07-29T08:19:07;6.45;;;3.22;;
63114;SDS011;49208;50.874;6.466;2022-07-29T08:21:33;8.23;;;3.50;;
63114;SDS011;49208;50.874;6.466;2022-07-29T08:23:58;6.68;;;3.50;;
63114;SDS011;49208;50.874;6.466;2022-07-29T08:26:42;6.15;;;3.00;;
63114;SDS011;49208;50.874;6.466;2022-07-29T08:29:08;8.43;;;4.50;;
63114;SDS011;49208;50.874;6.466;2022-07-29T08:31:35;5.68;;;2.85;;
63114;SDS011;49208;50.874;6.466;2022-07-29T08:34:02;8.77;;;3.28;;
63114;SDS011;49208;50.874;6.466;2022-07-29T08:36:28;7.68;;;3.63;;
63114;SDS011;49208;50.874;6.466;2022-07-29T08:38:54;6.50;;;2.80;;
63114;SDS011;49208;50.874;6.466;2022-07-29T08:41:20;5.72;;;2.70;;
63114;SDS011;49208;50.874;6.466;2022-07-29T08:43:46;8.15;;;3.28;;
63114;SDS011;49208;50.874;6.466;2022-07-29T08:46:12;9.05;;;3.42;;
63114;SDS011;49208;50.874;6.466;2022-07-29T08:48:37;7.97;;;3.72;;
63114;SDS011;49208;50.874;6.466;2022-07-29T08:51:03;7.05;;;3.50;;
63114;SDS011;49208;50.874;6.466;2022-07-29T08:53:31;7.55;;;2.85;;
63114;SDS011;49208;50.874;6.466;2022-07-29T08:55:57;6.50;;;3.00;;
63114;SDS011;49208;50.874;6.466;2022-07-29T08:58:23;8.57;;;2.40;;
63114;SDS011;49208;50.874;6.466;2022-07-29T09:00:53;6.05;;;3.38;;
63114;SDS011;49208;50.874;6.466;2022-07-29T09:03:20;6.35;;;3.45;;
63114;SDS011;49208;50.874;6.466;2022-07-29T09:05:48;9.45;;;4.03;;
63114;SDS011;49208;50.874;6.466;2022-07-29T09:08:15;6.55;;;3.10;;
63114;SDS011;49208;50.874;6.466;2022-07-29T09:10:41;6.35;;;2.80;;
63114;SDS011;49208;50.874;6.466;2022-07-29T09:13:07;5.05;;;3.05;;
63114;SDS011;49208;50.874;6.466;2022-07-29T09:15:33;6.75;;;2.90;;
63114;SDS011;49208;50.874;6.466;2022-07-29T09:17:58;6.72;;;2.60;;
63114;SDS011;49208;50.874;6.466;2022-07-29T09:20:25;5.13;;;2.73;;
63114;SDS011;49208;50.874;6.466;2022-07-29T09:22:51;6.13;;;3.03;;
63114;SDS011;49208;50.874;6.466;2022-07-29T09:25:32;4.03;;;2.35;;
63114;SDS011;49208;50.874;6.466;2022-07-29T09:28:08;5.65;;;2.90;;
63114;SDS011;49208;50.874;6.466;2022-07-29T09:30:51;6.03;;;3.03;;
63114;SDS011;49208;50.874;6.466;2022-07-29T09:33:17;5.78;;;2.80;;
63114;SDS011;49208;50.874;6.466;2022-07-29T09:35:43;4.73;;;2.30;;
63114;SDS011;49208;50.874;6.466;2022-07-29T09:38:12;8.90;;;3.28;;
63114;SDS011;49208;50.874;6.466;2022-07-29T09:40:38;5.20;;;2.67;;
63114;SDS011;49208;50.874;6.466;2022-07-29T09:43:11;4.68;;;2.67;;
63114;SDS011;49208;50.874;6.466;2022-07-29T09:45:37;7.80;;;2.47;;
63114;SDS011;49208;50.874;6.466;2022-07-29T09:50:58;8.63;;;3.10;;
63114;SDS011;49208;50.874;6.466;2022-07-29T09:56:03;4.57;;;2.30;;
63114;SDS011;49208;50.874;6.466;2022-07-29T09:58:29;6.13;;;3.00;;
63114;SDS011;49208;50.874;6.466;2022-07-29T10:00:58;8.30;;;2.75;;
63114;SDS011;49208;50.874;6.466;2022-07-29T10:03:23;6.85;;;2.63;;
63114;SDS011;49208;50.874;6.466;2022-07-29T10:06:04;10.18;;;3.60;;
63114;SDS011;49208;50.874;6.466;2022-07-29T10:08:34;7.05;;;3.00;;
63114;SDS011;49208;50.874;6.466;2022-07-29T10:11:08;5.35;;;3.15;;
63114;SDS011;49208;50.874;6.466;2022-07-29T10:13:34;5.90;;;3.30;;
63114;SDS011;49208;50.874;6.466;2022-07-29T10:15:59;8.50;;;3.20;;
63114;SDS011;49208;50.874;6.466;2022-07-29T10:18:25;8.47;;;3.13;;
63114;SDS011;49208;50.874;6.466;2022-07-29T10:20:51;6.07;;;2.35;;
63114;SDS011;49208;50.874;6.466;2022-07-29T10:23:17;7.53;;;2.45;;
63114;SDS011;49208;50.874;6.466;2022-07-29T10:25:44;5.37;;;2.50;;
63114;SDS011;49208;50.874;6.466;2022-07-29T10:28:10;4.03;;;1.90;;
63114;SDS011;49208;50.874;6.466;2022-07-29T10:30:36;7.10;;;2.50;;
63114;SDS011;49208;50.874;6.466;2022-07-29T10:33:15;6.97;;;2.80;;
63114;SDS011;49208;50.874;6.466;2022-07-29T10:36:02;5.55;;;2.53;;
63114;SDS011;49208;50.874;6.466;2022-07-29T10:44:18;7.47;;;2.50;;
63114;SDS011;49208;50.874;6.466;2022-07-29T10:46:46;6.72;;;2.72;;
63114;SDS011;49208;50.874;6.466;2022-07-29T10:49:15;5.73;;;2.80;;
63114;SDS011;49208;50.874;6.466;2022-07-29T11:07:29;5.38;;;3.05;;
63114;SDS011;49208;50.874;6.466;2022-07-29T11:15:08;7.78;;;3.25;;
63114;SDS011;49208;50.874;6.466;2022-07-29T11:28:50;8.02;;;3.40;;
63114;SDS011;49208;50.874;6.466;2022-07-29T11:31:49;6.22;;;3.40;;
63114;SDS011;49208;50.874;6.466;2022-07-29T11:34:29;9.55;;;3.40;;
63114;SDS011;49208;50.874;6.466;2022-07-29T11:39:32;8.63;;;3.10;;
63114;SDS011;49208;50.874;6.466;2022-07-29T11:47:24;5.40;;;3.63;;
63114;SDS011;49208;50.874;6.466;2022-07-29T11:49:51;7.55;;;3.40;;
63114;SDS011;49208;50.874;6.466;2022-07-29T11:52:18;7.30;;;3.08;;
63114;SDS011;49208;50.874;6.466;2022-07-29T11:54:44;8.50;;;3.17;;
63114;SDS011;49208;50.874;6.466;2022-07-29T11:57:12;5.30;;;2.63;;
63114;SDS011;49208;50.874;6.466;2022-07-29T11:59:39;6.53;;;2.83;;
63114;SDS011;49208;50.874;6.466;2022-07-29T12:02:06;4.60;;;2.70;;
63114;SDS011;49208;50.874;6.466;2022-07-29T12:04:33;5.22;;;2.67;;
63114;SDS011;49208;50.874;6.466;2022-07-29T12:06:59;6.45;;;2.88;;
63114;SDS011;49208;50.874;6.466;2022-07-29T12:09:25;6.85;;;2.65;;
63114;SDS011;49208;50.874;6.466;2022-07-29T12:11:57;10.00;;;3.00;;
63114;SDS011;49208;50.874;6.466;2022-07-29T12:14:27;9.35;;;3.42;;
63114;SDS011;49208;50.874;6.466;2022-07-29T12:16:54;6.53;;;3.40;;
63114;SDS011;49208;50.874;6.466;2022-07-29T12:19:20;6.93;;;2.93;;
63114;SDS011;49208;50.874;6.466;2022-07-29T12:21:46;6.67;;;3.47;;
63114;SDS011;49208;50.874;6.466;2022-07-29T12:24:13;6.55;;;2.88;;
63114;SDS011;49208;50.874;6.466;2022-07-29T12:29:17;6.65;;;2.90;;
63114;SDS011;49208;50.874;6.466;2022-07-29T12:31:43;12.95;;;5.65;;
63114;SDS011;49208;50.874;6.466;2022-07-29T12:34:13;7.93;;;3.10;;
63114;SDS011;49208;50.874;6.466;2022-07-29T12:36:41;4.25;;;2.20;;
63114;SDS011;49208;50.874;6.466;2022-07-29T12:39:08;7.90;;;2.85;;
63114;SDS011;49208;50.874;6.466;2022-07-29T12:41:34;4.47;;;2.22;;
63114;SDS011;49208;50.874;6.466;2022-07-29T12:44:00;7.10;;;2.63;;
63114;SDS011;49208;50.874;6.466;2022-07-29T12:46:25;3.50;;;2.00;;
63114;SDS011;49208;50.874;6.466;2022-07-29T12:48:51;6.27;;;2.03;;
63114;SDS011;49208;50.874;6.466;2022-07-29T12:51:28;6.50;;;3.10;;
63114;SDS011;49208;50.874;6.466;2022-07-29T12:54:09;4.20;;;2.40;;
63114;SDS011;49208;50.874;6.466;2022-07-29T12:56:37;5.90;;;2.58;;
63114;SDS011;49208;50.874;6.466;2022-07-29T12:59:19;6.00;;;2.58;;
63114;SDS011;49208;50.874;6.466;2022-07-29T13:01:47;4.88;;;2.65;;
63114;SDS011;49208;50.874;6.466;2022-07-29T13:04:30;5.05;;;2.58;;
63114;SDS011;49208;50.874;6.466;2022-07-29T13:07:00;8.75;;;3.08;;
63114;SDS011;49208;50.874;6.466;2022-07-29T13:09:36;5.28;;;2.60;;
63114;SDS011;49208;50.874;6.466;2022-07-29T13:12:11;7.70;;;3.08;;
63114;SDS011;49208;50.874;6.466;2022-07-29T13:14:38;6.65;;;2.53;;
63114;SDS011;49208;50.874;6.466;2022-07-29T13:17:06;6.72;;;2.65;;
63114;SDS011;49208;50.874;6.466;2022-07-29T13:19:49;6.70;;;2.75;;
63114;SDS011;49208;50.874;6.466;2022-07-29T13:22:17;5.82;;;2.90;;
63114;SDS011;49208;50.874;6.466;2022-07-29T13:25:00;6.07;;;3.00;;
63114;SDS011;49208;50.874;6.466;2022-07-29T13:27:32;5.18;;;2.38;;
63114;SDS011;49208;50.874;6.466;2022-07-29T13:32:25;4.72;;;2.20;;
63114;SDS011;49208;50.874;6.466;2022-07-29T13:34:51;7.18;;;2.50;;
63114;SDS011;49208;50.874;6.466;2022-07-29T13:37:18;6.30;;;2.67;;
63114;SDS011;49208;50.874;6.466;2022-07-29T13:39:44;5.43;;;2.30;;
63114;SDS011;49208;50.874;6.466;2022-07-29T13:42:10;5.70;;;2.45;;
63114;SDS011;49208;50.874;6.466;2022-07-29T13:44:38;8.27;;;2.85;;
63114;SDS011;49208;50.874;6.466;2022-07-29T13:47:07;5.80;;;2.55;;
63114;SDS011;49208;50.874;6.466;2022-07-29T13:49:33;5.40;;;2.40;;
63114;SDS011;49208;50.874;6.466;2022-07-29T13:51:59;3.75;;;2.10;;
63114;SDS011;49208;50.874;6.466;2022-07-29T13:54:24;9.00;;;2.70;;
63114;SDS011;49208;50.874;6.466;2022-07-29T13:56:50;8.23;;;2.77;;
63114;SDS011;49208;50.874;6.466;2022-07-29T13:59:16;7.37;;;2.50;;
63114;SDS011;49208;50.874;6.466;2022-07-29T14:01:41;5.83;;;2.17;;
63114;SDS011;49208;50.874;6.466;2022-07-29T14:04:07;8.63;;;2.63;;
63114;SDS011;49208;50.874;6.466;2022-07-29T14:06:33;5.03;;;2.35;;
63114;SDS011;49208;50.874;6.466;2022-07-29T14:08:58;6.20;;;2.47;;
63114;SDS011;49208;50.874;6.466;2022-07-29T14:11:24;7.87;;;3.07;;
63114;SDS011;49208;50.874;6.466;2022-07-29T14:13:49;4.57;;;2.30;;
63114;SDS011;49208;50.874;6.466;2022-07-29T14:16:15;6.93;;;2.70;;
63114;SDS011;49208;50.874;6.466;2022-07-29T14:18:40;8.80;;;2.77;;
63114;SDS011;49208;50.874;6.466;2022-07-29T14:21:06;6.50;;;2.60;;
63114;SDS011;49208;50.874;6.466;2022-07-29T14:23:31;4.27;;;2.60;;
63114;SDS011;49208;50.874;6.466;2022-07-29T14:25:57;9.27;;;2.70;;
63114;SDS011;49208;50.874;6.466;2022-07-29T14:28:22;5.33;;;2.90;;
63114;SDS011;49208;50.874;6.466;2022-07-29T14:30:47;8.63;;;2.50;;
63114;SDS011;49208;50.874;6.466;2022-07-29T14:33:13;8.40;;;2.50;;
63114;SDS011;49208;50.874;6.466;2022-07-29T14:35:38;4.50;;;2.40;;
63114;SDS011;49208;50.874;6.466;2022-07-29T14:38:04;4.70;;;2.20;;
63114;SDS011;49208;50.874;6.466;2022-07-29T14:40:29;5.57;;;2.30;;
63114;SDS011;49208;50.874;6.466;2022-07-29T14:42:54;5.17;;;2.60;;
63114;SDS011;49208;50.874;6.466;2022-07-29T14:45:20;6.30;;;2.47;;
63114;SDS011;49208;50.874;6.466;2022-07-29T14:47:45;6.57;;;2.20;;
63114;SDS011;49208;50.874;6.466;2022-07-29T14:50:11;5.43;;;2.50;;
63114;SDS011;49208;50.874;6.466;2022-07-29T14:52:37;5.00;;;2.40;;
63114;SDS011;49208;50.874;6.466;2022-07-29T14:55:03;3.77;;;2.33;;
63114;SDS011;49208;50.874;6.466;2022-07-29T14:57:29;3.55;;;1.70;;
63114;SDS011;49208;50.874;6.466;2022-07-29T14:59:55;6.40;;;2.30;;
63114;SDS011;49208;50.874;6.466;2022-07-29T15:02:20;3.60;;;2.13;;
63114;SDS011;49208;50.874;6.466;2022-07-29T15:04:45;8.23;;;2.73;;
63114;SDS011;49208;50.874;6.466;2022-07-29T15:07:12;5.35;;;2.45;;
63114;SDS011;49208;50.874;6.466;2022-07-29T15:09:38;3.87;;;2.03;;
63114;SDS011;49208;50.874;6.466;2022-07-29T15:12:04;4.27;;;1.87;;
63114;SDS011;49208;50.874;6.466;2022-07-29T15:14:29;3.87;;;2.10;;
63114;SDS011;49208;50.874;6.466;2022-07-29T15:16:56;2.97;;;1.95;;
63114;SDS011;49208;50.874;6.466;2022-07-29T15:19:22;3.50;;;1.93;;
63114;SDS011;49208;50.874;6.466;2022-07-29T15:21:47;3.87;;;1.80;;
63114;SDS011;49208;50.874;6.466;2022-07-29T15:24:13;3.70;;;1.93;;
63114;SDS011;49208;50.874;6.466;2022-07-29T15:26:38;2.93;;;1.60;;
63114;SDS011;49208;50.874;6.466;2022-07-29T15:29:03;3.50;;;2.00;;
63114;SDS011;49208;50.874;6.466;2022-07-29T15:31:29;7.47;;;2.50;;
63114;SDS011;49208;50.874;6.466;2022-07-29T15:33:54;3.83;;;1.77;;
63114;SDS011;49208;50.874;6.466;2022-07-29T15:36:20;4.03;;;2.07;;
63114;SDS011;49208;50.874;6.466;2022-07-29T15:38:45;3.57;;;2.07;;
63114;SDS011;49208;50.874;6.466;2022-07-29T15:41:14;3.33;;;1.73;;
63114;SDS011;49208;50.874;6.466;2022-07-29T15:43:43;4.63;;;2.20;;
63114;SDS011;49208;50.874;6.466;2022-07-29T15:46:12;7.90;;;2.38;;
63114;SDS011;49208;50.874;6.466;2022-07-29T15:48:57;4.15;;;2.38;;
63114;SDS011;49208;50.874;6.466;2022-07-29T15:51:23;6.47;;;2.83;;
63114;SDS011;49208;50.874;6.466;2022-07-29T15:53:49;5.00;;;2.33;;
63114;SDS011;49208;50.874;6.466;2022-07-29T15:56:14;5.27;;;2.60;;
63114;SDS011;49208;50.874;6.466;2022-07-29T15:58:40;3.20;;;1.70;;
63114;SDS011;49208;50.874;6.466;2022-07-29T16:01:05;5.37;;;2.57;;
63114;SDS011;49208;50.874;6.466;2022-07-29T16:03:30;4.57;;;2.30;;
63114;SDS011;49208;50.874;6.466;2022-07-29T16:05:57;3.67;;;2.10;;
63114;SDS011;49208;50.874;6.466;2022-07-29T16:08:23;5.63;;;2.70;;
63114;SDS011;49208;50.874;6.466;2022-07-29T16:10:48;4.00;;;2.50;;
63114;SDS011;49208;50.874;6.466;2022-07-29T16:13:13;4.20;;;2.17;;